sensor_id;sensor_type;location;lat;lon;timestamp;pressure;altitude;pressure_sealevel;temperature;humidity
40372;BME280;28564;53.346;-6.554;2023-06-26T00:00:14;100786.82;;;17.35;43.48
40372;BME280;28564;53.346;-6.554;2023-06-26T00:02:42;100788.68;;;17.10;43.50
40372;BME280;28564;53.346;-6.554;2023-06-26T00:05:08;100791.91;;;17.09;43.46
40372;BME280;28564;53.346;-6.554;2023-06-26T00:07:36;100796.75;;;17.29;43.46
40372;BME280;28564;53.346;-6.554;2023-06-26T00:10:03;100795.14;;;17.29;43.44
40372;BME280;28564;53.346;-6.554;2023-06-26T00:12:31;100790.91;;;16.81;43.37
40372;BME280;28564;53.346;-6.554;2023-06-26T00:14:59;100796.51;;;17.32;43.29
40372;BME280;28564;53.346;-6.554;2023-06-26T00:17:26;100794.96;;;17.12;43.25
40372;BME280;28564;53.346;-6.554;2023-06-26T00:19:54;100793.74;;;17.13;43.22
40372;BME280;28564;53.346;-6.554;2023-06-26T00:22:32;100796.01;;;17.36;43.21
40372;BME280;28564;53.346;-6.554;2023-06-26T00:24:59;100797.10;;;17.34;43.25
40372;BME280;28564;53.346;-6.554;2023-06-26T00:27:26;100800.63;;;17.11;43.27
40372;BME280;28564;53.346;-6.554;2023-06-26T00:29:53;100803.04;;;17.09;43.31
40372;BME280;28564;53.346;-6.554;2023-06-26T00:32:20;100805.12;;;17.30;43.31
40372;BME280;28564;53.346;-6.554;2023-06-26T00:34:47;100804.91;;;17.28;43.35
40372;BME280;28564;53.346;-6.554;2023-06-26T00:37:14;100806.18;;;17.03;43.41
40372;BME280;28564;53.346;-6.554;2023-06-26T00:39:41;100805.73;;;17.24;43.44
40372;BME280;28564;53.346;-6.554;2023-06-26T00:42:09;100810.10;;;17.22;43.45
40372;BME280;28564;53.346;-6.554;2023-06-26T00:44:36;100809.52;;;17.20;43.47
40372;BME280;28564;53.346;-6.554;2023-06-26T00:47:03;100810.87;;;17.16;43.53
40372;BME280;28564;53.346;-6.554;2023-06-26T00:49:30;100811.71;;;16.91;43.61
40372;BME280;28564;53.346;-6.554;2023-06-26T00:51:57;100815.22;;;17.05;43.75
40372;BME280;28564;53.346;-6.554;2023-06-26T00:54:24;100812.71;;;17.00;43.88
40372;BME280;28564;53.346;-6.554;2023-06-26T00:56:51;100813.00;;;16.96;43.88
40372;BME280;28564;53.346;-6.554;2023-06-26T00:59:18;100811.95;;;16.92;44.06
40372;BME280;28564;53.346;-6.554;2023-06-26T01:01:45;100815.84;;;16.86;44.24
40372;BME280;28564;53.346;-6.554;2023-06-26T01:04:13;100819.43;;;16.77;44.51
40372;BME280;28564;53.346;-6.554;2023-06-26T01:06:41;100820.56;;;16.94;44.58
40372;BME280;28564;53.346;-6.554;2023-06-26T01:09:08;100824.87;;;16.69;44.64
40372;BME280;28564;53.346;-6.554;2023-06-26T01:11:35;100827.67;;;16.66;44.74
40372;BME280;28564;53.346;-6.554;2023-06-26T01:14:03;100827.68;;;16.65;44.79
40372;BME280;28564;53.346;-6.554;2023-06-26T01:16:30;100829.63;;;16.62;44.84
40372;BME280;28564;53.346;-6.554;2023-06-26T01:18:58;100834.47;;;16.60;44.85
40372;BME280;28564;53.346;-6.554;2023-06-26T01:21:26;100839.30;;;16.65;44.81
40372;BME280;28564;53.346;-6.554;2023-06-26T01:24:01;100838.85;;;16.68;44.84
40372;BME280;28564;53.346;-6.554;2023-06-26T01:26:31;100838.59;;;16.64;44.86
40372;BME280;28564;53.346;-6.554;2023-06-26T01:29:01;100839.52;;;16.62;44.89
40372;BME280;28564;53.346;-6.554;2023-06-26T01:31:30;100842.52;;;16.60;44.96
40372;BME280;28564;53.346;-6.554;2023-06-26T01:33:59;100842.81;;;16.82;44.96
40372;BME280;28564;53.346;-6.554;2023-06-26T01:36:27;100842.33;;;16.59;45.03
40372;BME280;28564;53.346;-6.554;2023-06-26T01:38:55;100846.38;;;16.76;45.21
40372;BME280;28564;53.346;-6.554;2023-06-26T01:41:22;100846.60;;;16.72;45.28
40372;BME280;28564;53.346;-6.554;2023-06-26T01:44:03;100844.58;;;16.45;45.42
40372;BME280;28564;53.346;-6.554;2023-06-26T01:46:38;100841.33;;;16.47;45.42
40372;BME280;28564;53.346;-6.554;2023-06-26T01:49:11;100844.36;;;16.49;45.40
40372;BME280;28564;53.346;-6.554;2023-06-26T01:51:42;100840.31;;;16.30;45.34
40372;BME280;28564;53.346;-6.554;2023-06-26T01:54:18;100841.04;;;16.51;45.36
40372;BME280;28564;53.346;-6.554;2023-06-26T01:56:49;100841.37;;;16.48;45.46
40372;BME280;28564;53.346;-6.554;2023-06-26T01:59:18;100843.21;;;16.45;45.59
40372;BME280;28564;53.346;-6.554;2023-06-26T02:01:46;100842.91;;;16.46;45.65
40372;BME280;28564;53.346;-6.554;2023-06-26T02:04:14;100843.74;;;16.46;45.64
40372;BME280;28564;53.346;-6.554;2023-06-26T02:06:41;100844.07;;;16.24;45.68
40372;BME280;28564;53.346;-6.554;2023-06-26T02:09:08;100844.37;;;16.44;45.68
40372;BME280;28564;53.346;-6.554;2023-06-26T02:11:35;100848.27;;;16.20;45.80
40372;BME280;28564;53.346;-6.554;2023-06-26T02:14:02;100846.01;;;16.42;45.74
40372;BME280;28564;53.346;-6.554;2023-06-26T02:16:29;100848.93;;;16.42;45.74
40372;BME280;28564;53.346;-6.554;2023-06-26T02:18:57;100847.18;;;16.41;45.73
40372;BME280;28564;53.346;-6.554;2023-06-26T02:21:24;100842.10;;;16.42;45.67
40372;BME280;28564;53.346;-6.554;2023-06-26T02:23:51;100842.48;;;16.20;45.67
40372;BME280;28564;53.346;-6.554;2023-06-26T02:26:18;100843.47;;;16.40;45.72
40372;BME280;28564;53.346;-6.554;2023-06-26T02:28:45;100845.40;;;16.41;45.74
40372;BME280;28564;53.346;-6.554;2023-06-26T02:31:12;100843.27;;;16.37;45.78
40372;BME280;28564;53.346;-6.554;2023-06-26T02:33:41;100845.59;;;16.36;45.85
40372;BME280;28564;53.346;-6.554;2023-06-26T02:36:08;100846.69;;;16.35;45.87
40372;BME280;28564;53.346;-6.554;2023-06-26T02:38:35;100846.25;;;16.55;45.92
40372;BME280;28564;53.346;-6.554;2023-06-26T02:41:02;100850.47;;;16.31;45.96
40372;BME280;28564;53.346;-6.554;2023-06-26T02:43:30;100853.12;;;16.31;45.99
40372;BME280;28564;53.346;-6.554;2023-06-26T02:45:57;100856.96;;;16.32;45.96
40372;BME280;28564;53.346;-6.554;2023-06-26T02:48:24;100853.05;;;16.28;46.07
40372;BME280;28564;53.346;-6.554;2023-06-26T02:50:51;100857.50;;;16.28;46.04
40372;BME280;28564;53.346;-6.554;2023-06-26T02:53:18;100857.55;;;16.46;46.12
40372;BME280;28564;53.346;-6.554;2023-06-26T02:55:45;100860.73;;;16.20;46.26
40372;BME280;28564;53.346;-6.554;2023-06-26T02:58:13;100860.89;;;15.93;46.44
40372;BME280;28564;53.346;-6.554;2023-06-26T03:00:40;100860.75;;;16.14;46.45
40372;BME280;28564;53.346;-6.554;2023-06-26T03:03:07;100863.95;;;16.12;46.46
40372;BME280;28564;53.346;-6.554;2023-06-26T03:05:34;100860.33;;;16.10;46.45
40372;BME280;28564;53.346;-6.554;2023-06-26T03:08:02;100859.52;;;16.06;46.58
40372;BME280;28564;53.346;-6.554;2023-06-26T03:10:29;100860.06;;;16.05;46.55
40372;BME280;28564;53.346;-6.554;2023-06-26T03:12:56;100855.70;;;16.02;46.62
40372;BME280;28564;53.346;-6.554;2023-06-26T03:15:23;100860.44;;;16.21;46.67
40372;BME280;28564;53.346;-6.554;2023-06-26T03:17:51;100861.87;;;15.91;46.83
40372;BME280;28564;53.346;-6.554;2023-06-26T03:20:18;100862.57;;;15.90;46.72
40372;BME280;28564;53.346;-6.554;2023-06-26T03:22:45;100866.63;;;15.89;46.78
40372;BME280;28564;53.346;-6.554;2023-06-26T03:25:12;100870.94;;;15.91;46.74
40372;BME280;28564;53.346;-6.554;2023-06-26T03:27:39;100873.31;;;16.10;46.78
40372;BME280;28564;53.346;-6.554;2023-06-26T03:30:07;100872.49;;;15.83;46.78
40372;BME280;28564;53.346;-6.554;2023-06-26T03:32:34;100874.80;;;15.81;46.83
40372;BME280;28564;53.346;-6.554;2023-06-26T03:35:01;100876.98;;;16.01;46.88
40372;BME280;28564;53.346;-6.554;2023-06-26T03:37:29;100873.44;;;15.78;46.87
40372;BME280;28564;53.346;-6.554;2023-06-26T03:39:56;100870.48;;;15.98;46.85
40372;BME280;28564;53.346;-6.554;2023-06-26T03:42:23;100870.10;;;15.96;46.86
40372;BME280;28564;53.346;-6.554;2023-06-26T03:44:50;100871.16;;;15.95;46.86
40372;BME280;28564;53.346;-6.554;2023-06-26T03:47:17;100870.99;;;15.93;46.93
40372;BME280;28564;53.346;-6.554;2023-06-26T03:49:44;100872.12;;;15.68;46.92
40372;BME280;28564;53.346;-6.554;2023-06-26T03:52:11;100872.26;;;15.86;46.96
40372;BME280;28564;53.346;-6.554;2023-06-26T03:54:39;100876.73;;;15.64;46.97
40372;BME280;28564;53.346;-6.554;2023-06-26T03:57:06;100874.64;;;15.63;46.97
40372;BME280;28564;53.346;-6.554;2023-06-26T03:59:33;100872.88;;;15.60;46.97
40372;BME280;28564;53.346;-6.554;2023-06-26T04:02:00;100868.14;;;15.79;47.00
40372;BME280;28564;53.346;-6.554;2023-06-26T04:04:27;100867.80;;;15.55;47.05
40372;BME280;28564;53.346;-6.554;2023-06-26T04:06:54;100871.01;;;15.55;47.07
40372;BME280;28564;53.346;-6.554;2023-06-26T04:09:21;100876.11;;;15.75;47.07
40372;BME280;28564;53.346;-6.554;2023-06-26T04:11:48;100875.67;;;15.73;47.04
40372;BME280;28564;53.346;-6.554;2023-06-26T04:14:15;100884.63;;;15.70;47.10
40372;BME280;28564;53.346;-6.554;2023-06-26T04:16:43;100888.49;;;15.65;47.15
40372;BME280;28564;53.346;-6.554;2023-06-26T04:19:11;100887.85;;;15.40;47.17
40372;BME280;28564;53.346;-6.554;2023-06-26T04:21:39;100887.06;;;15.55;47.26
40372;BME280;28564;53.346;-6.554;2023-06-26T04:24:07;100885.84;;;15.54;47.31
40372;BME280;28564;53.346;-6.554;2023-06-26T04:26:34;100883.84;;;15.31;47.27
40372;BME280;28564;53.346;-6.554;2023-06-26T04:29:01;100888.95;;;15.80;47.29
40372;BME280;28564;53.346;-6.554;2023-06-26T04:31:28;100895.80;;;15.51;47.34
40372;BME280;28564;53.346;-6.554;2023-06-26T04:33:55;100900.68;;;15.78;47.37
40372;BME280;28564;53.346;-6.554;2023-06-26T04:36:23;100908.28;;;15.28;47.40
40372;BME280;28564;53.346;-6.554;2023-06-26T04:38:50;100913.57;;;15.78;47.41
40372;BME280;28564;53.346;-6.554;2023-06-26T04:41:17;100915.96;;;15.52;47.45
40372;BME280;28564;53.346;-6.554;2023-06-26T04:43:44;100917.01;;;15.49;47.48
40372;BME280;28564;53.346;-6.554;2023-06-26T04:46:11;100918.65;;;15.75;47.61
40372;BME280;28564;53.346;-6.554;2023-06-26T04:48:38;100916.31;;;15.49;47.61
40372;BME280;28564;53.346;-6.554;2023-06-26T04:51:05;100919.53;;;15.48;47.78
40372;BME280;28564;53.346;-6.554;2023-06-26T04:53:33;100924.61;;;15.49;47.75
40372;BME280;28564;53.346;-6.554;2023-06-26T04:56:00;100928.09;;;15.29;47.76
40372;BME280;28564;53.346;-6.554;2023-06-26T04:58:27;100930.88;;;15.82;47.75
40372;BME280;28564;53.346;-6.554;2023-06-26T05:00:54;100932.65;;;15.57;47.76
40372;BME280;28564;53.346;-6.554;2023-06-26T05:03:22;100933.18;;;15.58;47.80
40372;BME280;28564;53.346;-6.554;2023-06-26T05:05:49;100935.06;;;15.37;47.86
40372;BME280;28564;53.346;-6.554;2023-06-26T05:08:18;100936.20;;;15.60;47.95
40372;BME280;28564;53.346;-6.554;2023-06-26T05:10:45;100934.31;;;15.64;47.97
40372;BME280;28564;53.346;-6.554;2023-06-26T05:13:12;100935.65;;;15.44;48.06
40372;BME280;28564;53.346;-6.554;2023-06-26T05:15:39;100931.81;;;15.68;48.11
40372;BME280;28564;53.346;-6.554;2023-06-26T05:18:07;100933.55;;;15.70;48.21
40372;BME280;28564;53.346;-6.554;2023-06-26T05:20:34;100934.11;;;15.51;48.28
40372;BME280;28564;53.346;-6.554;2023-06-26T05:23:02;100936.50;;;15.57;48.28
40372;BME280;28564;53.346;-6.554;2023-06-26T05:25:29;100943.01;;;15.64;48.28
40372;BME280;28564;53.346;-6.554;2023-06-26T05:27:57;100946.16;;;15.72;48.32
40372;BME280;28564;53.346;-6.554;2023-06-26T05:30:26;100943.90;;;16.00;48.35
40372;BME280;28564;53.346;-6.554;2023-06-26T05:32:55;100947.05;;;16.07;48.38
40372;BME280;28564;53.346;-6.554;2023-06-26T05:35:23;100946.66;;;15.94;48.39
40372;BME280;28564;53.346;-6.554;2023-06-26T05:37:51;100946.14;;;16.55;48.39
40372;BME280;28564;53.346;-6.554;2023-06-26T05:40:18;100944.45;;;15.99;48.39
40372;BME280;28564;53.346;-6.554;2023-06-26T05:42:47;100945.63;;;16.24;48.24
40372;BME280;28564;53.346;-6.554;2023-06-26T05:45:14;100942.21;;;16.71;48.02
40372;BME280;28564;53.346;-6.554;2023-06-26T05:47:42;100941.63;;;16.45;47.81
40372;BME280;28564;53.346;-6.554;2023-06-26T05:50:10;100943.58;;;16.99;47.57
40372;BME280;28564;53.346;-6.554;2023-06-26T05:52:38;100939.88;;;16.92;47.27
40372;BME280;28564;53.346;-6.554;2023-06-26T05:55:07;100940.86;;;16.99;46.93
40372;BME280;28564;53.346;-6.554;2023-06-26T05:57:35;100935.53;;;17.07;46.75
40372;BME280;28564;53.346;-6.554;2023-06-26T06:00:05;100949.74;;;17.17;46.75
40372;BME280;28564;53.346;-6.554;2023-06-26T06:02:33;100949.10;;;17.29;46.70
40372;BME280;28564;53.346;-6.554;2023-06-26T06:05:00;100948.55;;;17.41;46.51
40372;BME280;28564;53.346;-6.554;2023-06-26T06:07:28;100955.75;;;17.46;46.33
40372;BME280;28564;53.346;-6.554;2023-06-26T06:09:55;100951.55;;;17.22;46.19
40372;BME280;28564;53.346;-6.554;2023-06-26T06:12:22;100949.30;;;17.22;46.29
40372;BME280;28564;53.346;-6.554;2023-06-26T06:14:49;100953.03;;;17.28;46.30
40372;BME280;28564;53.346;-6.554;2023-06-26T06:17:16;100951.03;;;17.52;46.21
40372;BME280;28564;53.346;-6.554;2023-06-26T06:19:43;100950.11;;;17.51;46.17
40372;BME280;28564;53.346;-6.554;2023-06-26T06:22:10;100953.29;;;17.46;46.29
40372;BME280;28564;53.346;-6.554;2023-06-26T06:24:37;100956.38;;;17.57;46.45
40372;BME280;28564;53.346;-6.554;2023-06-26T06:27:04;100962.40;;;17.56;46.35
40372;BME280;28564;53.346;-6.554;2023-06-26T06:29:31;100966.37;;;17.95;46.22
40372;BME280;28564;53.346;-6.554;2023-06-26T06:31:58;100972.83;;;17.90;46.01
40372;BME280;28564;53.346;-6.554;2023-06-26T06:34:26;100974.17;;;17.78;45.99
40372;BME280;28564;53.346;-6.554;2023-06-26T06:36:53;100975.67;;;18.12;45.81
40372;BME280;28564;53.346;-6.554;2023-06-26T06:39:20;100980.84;;;18.09;45.61
40372;BME280;28564;53.346;-6.554;2023-06-26T06:41:47;100982.55;;;17.92;45.56
40372;BME280;28564;53.346;-6.554;2023-06-26T06:44:14;100974.70;;;17.62;45.79
40372;BME280;28564;53.346;-6.554;2023-06-26T06:46:41;100978.57;;;18.02;45.96
40372;BME280;28564;53.346;-6.554;2023-06-26T06:49:08;100981.97;;;17.92;45.96
40372;BME280;28564;53.346;-6.554;2023-06-26T06:51:35;100981.82;;;18.39;45.88
40372;BME280;28564;53.346;-6.554;2023-06-26T06:54:02;100976.77;;;18.56;45.62
40372;BME280;28564;53.346;-6.554;2023-06-26T06:56:29;100980.08;;;18.16;45.32
40372;BME280;28564;53.346;-6.554;2023-06-26T06:58:56;100985.29;;;18.42;45.14
40372;BME280;28564;53.346;-6.554;2023-06-26T07:01:24;100996.14;;;18.55;45.11
40372;BME280;28564;53.346;-6.554;2023-06-26T07:03:51;100997.86;;;18.26;44.87
40372;BME280;28564;53.346;-6.554;2023-06-26T07:06:18;100989.97;;;18.42;44.91
40372;BME280;28564;53.346;-6.554;2023-06-26T07:08:45;100996.77;;;18.23;44.93
40372;BME280;28564;53.346;-6.554;2023-06-26T07:11:12;101006.39;;;17.80;45.28
40372;BME280;28564;53.346;-6.554;2023-06-26T07:13:39;101006.96;;;18.03;45.67
40372;BME280;28564;53.346;-6.554;2023-06-26T07:16:06;101009.40;;;17.93;45.77
40372;BME280;28564;53.346;-6.554;2023-06-26T07:18:33;101010.25;;;18.05;45.77
40372;BME280;28564;53.346;-6.554;2023-06-26T07:21:00;101009.05;;;18.17;45.71
40372;BME280;28564;53.346;-6.554;2023-06-26T07:23:27;101004.47;;;18.27;45.64
40372;BME280;28564;53.346;-6.554;2023-06-26T07:25:54;101006.06;;;18.58;45.57
40372;BME280;28564;53.346;-6.554;2023-06-26T07:28:21;101010.85;;;18.33;45.31
40372;BME280;28564;53.346;-6.554;2023-06-26T07:30:48;101009.16;;;18.38;45.36
40372;BME280;28564;53.346;-6.554;2023-06-26T07:33:16;101009.82;;;18.41;45.43
40372;BME280;28564;53.346;-6.554;2023-06-26T07:35:43;101008.77;;;18.38;45.49
40372;BME280;28564;53.346;-6.554;2023-06-26T07:38:10;101013.64;;;18.34;45.59
40372;BME280;28564;53.346;-6.554;2023-06-26T07:40:37;101022.23;;;18.35;45.55
40372;BME280;28564;53.346;-6.554;2023-06-26T07:43:04;101028.79;;;18.52;45.53
40372;BME280;28564;53.346;-6.554;2023-06-26T07:45:31;101031.38;;;18.55;45.21
40372;BME280;28564;53.346;-6.554;2023-06-26T07:47:58;101033.24;;;18.67;45.14
40372;BME280;28564;53.346;-6.554;2023-06-26T07:50:25;101029.65;;;19.05;44.64
40372;BME280;28564;53.346;-6.554;2023-06-26T07:52:52;101036.07;;;19.40;44.47
40372;BME280;28564;53.346;-6.554;2023-06-26T07:55:19;101033.31;;;19.85;43.91
40372;BME280;28564;53.346;-6.554;2023-06-26T07:57:46;101031.75;;;19.74;43.42
40372;BME280;28564;53.346;-6.554;2023-06-26T08:00:14;101033.88;;;19.72;43.15
40372;BME280;28564;53.346;-6.554;2023-06-26T08:02:41;101031.04;;;19.34;42.42
40372;BME280;28564;53.346;-6.554;2023-06-26T08:05:08;101031.08;;;19.47;42.80
40372;BME280;28564;53.346;-6.554;2023-06-26T08:07:35;101043.18;;;19.01;43.16
40372;BME280;28564;53.346;-6.554;2023-06-26T08:10:03;101047.75;;;19.18;43.34
40372;BME280;28564;53.346;-6.554;2023-06-26T08:12:30;101043.87;;;19.05;42.92
40372;BME280;28564;53.346;-6.554;2023-06-26T08:14:57;101040.23;;;19.15;43.25
40372;BME280;28564;53.346;-6.554;2023-06-26T08:17:24;101040.51;;;19.22;43.37
40372;BME280;28564;53.346;-6.554;2023-06-26T08:19:51;101037.59;;;19.12;43.23
40372;BME280;28564;53.346;-6.554;2023-06-26T08:22:19;101039.37;;;19.21;43.05
40372;BME280;28564;53.346;-6.554;2023-06-26T08:24:45;101039.89;;;19.30;43.04
40372;BME280;28564;53.346;-6.554;2023-06-26T08:27:12;101043.40;;;19.41;42.85
40372;BME280;28564;53.346;-6.554;2023-06-26T08:29:40;101046.37;;;19.54;42.60
40372;BME280;28564;53.346;-6.554;2023-06-26T08:32:07;101042.69;;;19.56;43.03
40372;BME280;28564;53.346;-6.554;2023-06-26T08:34:34;101043.24;;;19.82;43.28
40372;BME280;28564;53.346;-6.554;2023-06-26T08:37:01;101046.68;;;19.57;42.15
40372;BME280;28564;53.346;-6.554;2023-06-26T08:39:28;101042.95;;;20.09;41.76
40372;BME280;28564;53.346;-6.554;2023-06-26T08:41:55;101043.37;;;20.07;41.22
40372;BME280;28564;53.346;-6.554;2023-06-26T08:44:22;101046.33;;;20.16;40.68
40372;BME280;28564;53.346;-6.554;2023-06-26T08:46:49;101046.74;;;20.49;39.99
40372;BME280;28564;53.346;-6.554;2023-06-26T08:49:20;101040.59;;;20.26;40.12
40372;BME280;28564;53.346;-6.554;2023-06-26T08:51:52;101040.20;;;20.33;40.21
40372;BME280;28564;53.346;-6.554;2023-06-26T08:54:25;101046.83;;;20.32;40.28
40372;BME280;28564;53.346;-6.554;2023-06-26T08:56:55;101048.88;;;20.32;40.58
40372;BME280;28564;53.346;-6.554;2023-06-26T08:59:23;101049.58;;;20.38;40.65
40372;BME280;28564;53.346;-6.554;2023-06-26T09:01:51;101046.32;;;20.01;40.99
40372;BME280;28564;53.346;-6.554;2023-06-26T09:04:19;101041.26;;;19.83;41.51
40372;BME280;28564;53.346;-6.554;2023-06-26T09:06:46;101036.52;;;19.86;41.07
40372;BME280;28564;53.346;-6.554;2023-06-26T09:09:13;101043.69;;;19.76;41.81
40372;BME280;28564;53.346;-6.554;2023-06-26T09:11:40;101035.40;;;20.04;40.97
40372;BME280;28564;53.346;-6.554;2023-06-26T09:14:07;101042.36;;;20.46;41.00
40372;BME280;28564;53.346;-6.554;2023-06-26T09:16:40;101054.99;;;20.02;39.30
40372;BME280;28564;53.346;-6.554;2023-06-26T09:19:09;101042.44;;;20.26;39.01
40372;BME280;28564;53.346;-6.554;2023-06-26T09:21:37;101045.79;;;20.24;39.29
40372;BME280;28564;53.346;-6.554;2023-06-26T09:24:06;101045.92;;;20.38;39.68
40372;BME280;28564;53.346;-6.554;2023-06-26T09:26:35;101052.53;;;20.13;39.44
40372;BME280;28564;53.346;-6.554;2023-06-26T09:29:03;101046.16;;;20.08;39.13
40372;BME280;28564;53.346;-6.554;2023-06-26T09:31:31;101051.30;;;20.16;39.28
40372;BME280;28564;53.346;-6.554;2023-06-26T09:33:59;101049.19;;;20.48;38.44
40372;BME280;28564;53.346;-6.554;2023-06-26T09:36:29;101052.70;;;20.73;38.04
40372;BME280;28564;53.346;-6.554;2023-06-26T09:38:56;101049.27;;;21.11;37.12
40372;BME280;28564;53.346;-6.554;2023-06-26T09:41:23;101069.78;;;20.98;37.00
40372;BME280;28564;53.346;-6.554;2023-06-26T09:43:51;101052.08;;;21.69;36.24
40372;BME280;28564;53.346;-6.554;2023-06-26T09:46:24;101052.19;;;21.90;36.11
40372;BME280;28564;53.346;-6.554;2023-06-26T09:48:59;101057.42;;;22.00;34.60
40372;BME280;28564;53.346;-6.554;2023-06-26T09:51:29;101062.19;;;21.63;34.34
40372;BME280;28564;53.346;-6.554;2023-06-26T09:53:57;101061.31;;;21.33;34.08
40372;BME280;28564;53.346;-6.554;2023-06-26T09:56:24;101061.59;;;20.80;33.91
40372;BME280;28564;53.346;-6.554;2023-06-26T09:58:52;101072.33;;;21.22;33.41
40372;BME280;28564;53.346;-6.554;2023-06-26T10:01:21;101061.60;;;20.84;33.63
40372;BME280;28564;53.346;-6.554;2023-06-26T10:03:48;101071.03;;;20.64;33.48
40372;BME280;28564;53.346;-6.554;2023-06-26T10:06:18;101062.55;;;21.15;33.78
40372;BME280;28564;53.346;-6.554;2023-06-26T10:08:46;101064.02;;;21.20;33.98
40372;BME280;28564;53.346;-6.554;2023-06-26T10:11:18;101071.20;;;21.42;34.57
40372;BME280;28564;53.346;-6.554;2023-06-26T10:13:49;101068.04;;;21.53;33.64
40372;BME280;28564;53.346;-6.554;2023-06-26T10:16:21;101074.34;;;21.66;33.46
40372;BME280;28564;53.346;-6.554;2023-06-26T10:18:51;101097.32;;;21.44;34.12
40372;BME280;28564;53.346;-6.554;2023-06-26T10:21:20;101117.71;;;20.75;37.83
40372;BME280;28564;53.346;-6.554;2023-06-26T10:23:50;101123.23;;;20.09;41.48
40372;BME280;28564;53.346;-6.554;2023-06-26T10:26:20;101123.93;;;19.36;42.82
40372;BME280;28564;53.346;-6.554;2023-06-26T10:28:49;101126.53;;;19.48;44.20
40372;BME280;28564;53.346;-6.554;2023-06-26T10:31:20;101124.52;;;19.27;44.56
40372;BME280;28564;53.346;-6.554;2023-06-26T10:33:48;101122.49;;;19.29;45.53
40372;BME280;28564;53.346;-6.554;2023-06-26T10:36:18;101122.36;;;19.87;44.78
40372;BME280;28564;53.346;-6.554;2023-06-26T10:38:50;101125.97;;;19.84;45.33
40372;BME280;28564;53.346;-6.554;2023-06-26T10:41:20;101123.81;;;19.92;43.82
40372;BME280;28564;53.346;-6.554;2023-06-26T10:43:50;101132.66;;;19.65;44.14
40372;BME280;28564;53.346;-6.554;2023-06-26T10:46:18;101123.87;;;19.84;43.44
40372;BME280;28564;53.346;-6.554;2023-06-26T10:49:01;101127.89;;;20.32;42.38
40372;BME280;28564;53.346;-6.554;2023-06-26T10:51:29;101128.15;;;20.62;42.23
40372;BME280;28564;53.346;-6.554;2023-06-26T10:53:57;101135.66;;;20.91;41.05
40372;BME280;28564;53.346;-6.554;2023-06-26T10:56:42;101152.36;;;20.85;39.94
40372;BME280;28564;53.346;-6.554;2023-06-26T10:59:19;101143.07;;;21.04;39.75
40372;BME280;28564;53.346;-6.554;2023-06-26T11:01:54;101150.20;;;21.97;39.74
40372;BME280;28564;53.346;-6.554;2023-06-26T11:04:36;101168.73;;;21.40;38.88
40372;BME280;28564;53.346;-6.554;2023-06-26T11:07:23;101152.32;;;21.52;38.52
40372;BME280;28564;53.346;-6.554;2023-06-26T11:10:00;101164.20;;;21.91;38.73
40372;BME280;28564;53.346;-6.554;2023-06-26T11:12:36;101152.33;;;22.00;38.38
40372;BME280;28564;53.346;-6.554;2023-06-26T11:15:06;101156.92;;;22.15;37.67
40372;BME280;28564;53.346;-6.554;2023-06-26T11:17:35;101152.82;;;22.07;36.99
40372;BME280;28564;53.346;-6.554;2023-06-26T11:20:02;101153.63;;;22.38;37.10
40372;BME280;28564;53.346;-6.554;2023-06-26T11:22:31;101172.29;;;22.46;37.18
40372;BME280;28564;53.346;-6.554;2023-06-26T11:24:59;101170.85;;;22.30;36.72
40372;BME280;28564;53.346;-6.554;2023-06-26T11:27:31;101173.51;;;22.68;36.59
40372;BME280;28564;53.346;-6.554;2023-06-26T11:29:59;101173.19;;;22.69;36.50
40372;BME280;28564;53.346;-6.554;2023-06-26T11:32:27;101167.37;;;22.62;36.22
40372;BME280;28564;53.346;-6.554;2023-06-26T11:34:54;101163.77;;;22.68;36.69
40372;BME280;28564;53.346;-6.554;2023-06-26T11:37:22;101168.12;;;22.70;36.64
40372;BME280;28564;53.346;-6.554;2023-06-26T11:39:49;101165.39;;;22.22;36.91
40372;BME280;28564;53.346;-6.554;2023-06-26T11:42:16;101174.95;;;22.57;37.38
40372;BME280;28564;53.346;-6.554;2023-06-26T11:44:44;101190.86;;;22.42;37.04
40372;BME280;28564;53.346;-6.554;2023-06-26T11:47:13;101170.17;;;22.75;36.72
40372;BME280;28564;53.346;-6.554;2023-06-26T11:49:42;101177.56;;;23.09;36.45
40372;BME280;28564;53.346;-6.554;2023-06-26T11:52:10;101174.01;;;22.59;35.61
40372;BME280;28564;53.346;-6.554;2023-06-26T11:54:38;101164.53;;;22.96;34.72
40372;BME280;28564;53.346;-6.554;2023-06-26T11:57:06;101176.31;;;23.14;35.65
40372;BME280;28564;53.346;-6.554;2023-06-26T11:59:35;101168.41;;;22.55;35.11
40372;BME280;28564;53.346;-6.554;2023-06-26T12:02:06;101172.33;;;22.95;34.43
40372;BME280;28564;53.346;-6.554;2023-06-26T12:04:34;101167.85;;;22.71;34.53
40372;BME280;28564;53.346;-6.554;2023-06-26T12:07:03;101164.67;;;22.70;33.77
40372;BME280;28564;53.346;-6.554;2023-06-26T12:09:31;101170.93;;;22.59;34.02
40372;BME280;28564;53.346;-6.554;2023-06-26T12:11:58;101166.65;;;22.83;33.74
40372;BME280;28564;53.346;-6.554;2023-06-26T12:14:26;101159.81;;;22.99;32.60
40372;BME280;28564;53.346;-6.554;2023-06-26T12:16:54;101159.20;;;23.38;32.95
40372;BME280;28564;53.346;-6.554;2023-06-26T12:19:25;101159.81;;;23.51;32.77
40372;BME280;28564;53.346;-6.554;2023-06-26T12:21:52;101153.37;;;22.91;32.31
40372;BME280;28564;53.346;-6.554;2023-06-26T12:24:21;101165.46;;;23.12;33.23
40372;BME280;28564;53.346;-6.554;2023-06-26T12:26:51;101154.63;;;23.36;32.72
40372;BME280;28564;53.346;-6.554;2023-06-26T12:29:19;101157.18;;;23.30;32.58
40372;BME280;28564;53.346;-6.554;2023-06-26T12:31:50;101158.87;;;23.45;32.62
40372;BME280;28564;53.346;-6.554;2023-06-26T12:34:20;101164.26;;;23.17;33.38
40372;BME280;28564;53.346;-6.554;2023-06-26T12:36:49;101153.62;;;23.75;33.46
40372;BME280;28564;53.346;-6.554;2023-06-26T12:39:17;101162.64;;;23.92;33.41
40372;BME280;28564;53.346;-6.554;2023-06-26T12:41:46;101166.44;;;23.93;30.44
40372;BME280;28564;53.346;-6.554;2023-06-26T12:44:21;101170.10;;;23.87;30.38